ENAL Informações do Aeroporto

Informações da Pista
Pista 07 Comprimento 7592 ft Largura 148 ft
Elevação 34 ft Limite 490 ft Heading 65
Pista 25 Comprimento 7592 ft Largura 148 ft
Elevação 48 ft Limite 755 ft Heading 245
Frequências do Aeroporto
Tipo ATIS Nome ATIS Frequência 128.65 MHZ
Tipo TWR Nome TWR Frequência 119.85 MHZ
Navaids do Aeroporto
Tipo NDB Nome Vigra Frequência 355 KHZ
Tipo TACAN Nome Vigra Frequência 112400 KHZ
Tipo VOR-DME Nome Vigra Frequência 115800 KHZ
Informações meteorológicas do aeroporto e NOTAM
ADDS - METARS form results

(1101 UTC 26 September 2020)
Data provider http://aviationweather.gov/metar/data/
 
METAR text: ENAL 261050Z 05025KT 9999 SCT025 10/04 Q1015
Conditions at: ENAL (ALESUND/VIGRA , NO) observed 1050 UTC 26 September 2020
Temperature: 10.0°C (50°F)
Dewpoint: 4.0°C (39°F) [RH = 66%]
Pressure (altimeter): 29.97 inches Hg (1015.0 mb)
Winds: from the NE (50 degrees) at 29 MPH (25 knots; 12.9 m/s)
Visibility: 6 or more miles (10+ km)
Ceiling: at least 12,000 feet AGL
Clouds: scattered clouds at 2500 feet AGL
Weather: no significant weather observed at this time

METAR text: ENAL 261020Z 05024KT 9999 SCT027 10/04 Q1015
Conditions at: ENAL (ALESUND/VIGRA , NO) observed 1020 UTC 26 September 2020
Temperature: 10.0°C (50°F)
Dewpoint: 4.0°C (39°F) [RH = 66%]
Pressure (altimeter): 29.97 inches Hg (1015.0 mb)
Winds: from the NE (50 degrees) at 28 MPH (24 knots; 12.3 m/s)
Visibility: 6 or more miles (10+ km)
Ceiling: at least 12,000 feet AGL
Clouds: scattered clouds at 2700 feet AGL
Weather: no significant weather observed at this time

Forecast for: ENAL (ALESUND/VIGRA , NO)
Text: TAF ENAL 260800Z 2609/2618 05025G38KT 9999 SCT030
Forecast period: 0900 to 1800 UTC 26 September 2020
Forecast type: FROM: standard forecast or significant change
Winds: from the NE (50 degrees) at 29 MPH (25 knots; 12.9 m/s)
gusting to 44 MPH (38 knots; 19.5 m/s)
Visibility: 6 or more miles (10+ km)
Ceiling: at least 12,000 feet AGL
Clouds: scattered clouds at 3000 feet AGL
Weather: no significant weather forecast for this period